sensor_id;sensor_type;location;lat;lon;timestamp;P1;durP1;ratioP1;P2;durP2;ratioP2
38089;SDS011;23904;52.322;10.232;2023-04-01T00:00:29;5.35;;;1.85;;
38089;SDS011;23904;52.322;10.232;2023-04-01T00:02:55;7.00;;;1.40;;
38089;SDS011;23904;52.322;10.232;2023-04-01T00:05:23;10.10;;;2.33;;
38089;SDS011;23904;52.322;10.232;2023-04-01T00:07:50;7.40;;;1.60;;
38089;SDS011;23904;52.322;10.232;2023-04-01T00:10:16;8.93;;;2.25;;
38089;SDS011;23904;52.322;10.232;2023-04-01T00:12:42;12.35;;;1.83;;
38089;SDS011;23904;52.322;10.232;2023-04-01T00:15:09;8.30;;;1.50;;
38089;SDS011;23904;52.322;10.232;2023-04-01T00:17:36;9.55;;;1.83;;
38089;SDS011;23904;52.322;10.232;2023-04-01T00:20:03;10.25;;;2.20;;
38089;SDS011;23904;52.322;10.232;2023-04-01T00:22:32;9.68;;;1.63;;
38089;SDS011;23904;52.322;10.232;2023-04-01T00:24:58;9.73;;;2.15;;
38089;SDS011;23904;52.322;10.232;2023-04-01T00:27:24;7.85;;;1.95;;
38089;SDS011;23904;52.322;10.232;2023-04-01T00:29:50;13.32;;;3.58;;
38089;SDS011;23904;52.322;10.232;2023-04-01T00:32:16;5.20;;;1.48;;
38089;SDS011;23904;52.322;10.232;2023-04-01T00:34:42;7.13;;;1.88;;
38089;SDS011;23904;52.322;10.232;2023-04-01T00:37:09;9.02;;;1.67;;
38089;SDS011;23904;52.322;10.232;2023-04-01T00:39:34;11.07;;;1.58;;
38089;SDS011;23904;52.322;10.232;2023-04-01T00:42:01;7.15;;;2.20;;
38089;SDS011;23904;52.322;10.232;2023-04-01T00:44:29;12.35;;;2.17;;
38089;SDS011;23904;52.322;10.232;2023-04-01T00:46:58;5.78;;;1.48;;
38089;SDS011;23904;52.322;10.232;2023-04-01T00:49:26;7.60;;;2.50;;
38089;SDS011;23904;52.322;10.232;2023-04-01T00:51:55;8.55;;;1.88;;
38089;SDS011;23904;52.322;10.232;2023-04-01T00:54:24;8.95;;;1.73;;
38089;SDS011;23904;52.322;10.232;2023-04-01T00:57:09;8.75;;;1.67;;
38089;SDS011;23904;52.322;10.232;2023-04-01T00:59:46;5.00;;;1.45;;
38089;SDS011;23904;52.322;10.232;2023-04-01T01:02:14;8.27;;;1.95;;
38089;SDS011;23904;52.322;10.232;2023-04-01T01:04:42;8.10;;;1.83;;
38089;SDS011;23904;52.322;10.232;2023-04-01T01:07:23;10.57;;;3.50;;
38089;SDS011;23904;52.322;10.232;2023-04-01T01:10:14;8.15;;;2.33;;
38089;SDS011;23904;52.322;10.232;2023-04-01T01:15:47;6.13;;;2.05;;
38089;SDS011;23904;52.322;10.232;2023-04-01T01:18:52;9.02;;;1.77;;
38089;SDS011;23904;52.322;10.232;2023-04-01T01:22:01;5.70;;;1.50;;
38089;SDS011;23904;52.322;10.232;2023-04-01T01:27:12;4.97;;;1.40;;
38089;SDS011;23904;52.322;10.232;2023-04-01T01:30:06;5.70;;;1.05;;
38089;SDS011;23904;52.322;10.232;2023-04-01T01:33:01;4.68;;;1.13;;
38089;SDS011;23904;52.322;10.232;2023-04-01T01:35:56;5.32;;;1.30;;
38089;SDS011;23904;52.322;10.232;2023-04-01T01:38:26;2.58;;;0.82;;
38089;SDS011;23904;52.322;10.232;2023-04-01T01:40:56;6.15;;;0.80;;
38089;SDS011;23904;52.322;10.232;2023-04-01T01:43:25;4.53;;;1.17;;
38089;SDS011;23904;52.322;10.232;2023-04-01T01:45:57;6.00;;;1.17;;
38089;SDS011;23904;52.322;10.232;2023-04-01T01:48:28;4.63;;;1.13;;
38089;SDS011;23904;52.322;10.232;2023-04-01T01:50:55;2.72;;;0.88;;
38089;SDS011;23904;52.322;10.232;2023-04-01T01:53:24;3.97;;;1.00;;
38089;SDS011;23904;52.322;10.232;2023-04-01T01:55:50;6.35;;;1.10;;
38089;SDS011;23904;52.322;10.232;2023-04-01T02:00:53;3.60;;;1.27;;
38089;SDS011;23904;52.322;10.232;2023-04-01T02:03:26;8.40;;;1.25;;
38089;SDS011;23904;52.322;10.232;2023-04-01T02:05:57;4.70;;;0.90;;
38089;SDS011;23904;52.322;10.232;2023-04-01T02:08:36;7.50;;;1.70;;
38089;SDS011;23904;52.322;10.232;2023-04-01T02:11:12;5.32;;;1.20;;
38089;SDS011;23904;52.322;10.232;2023-04-01T02:13:54;4.65;;;1.00;;
38089;SDS011;23904;52.322;10.232;2023-04-01T02:19:31;3.83;;;0.95;;
38089;SDS011;23904;52.322;10.232;2023-04-01T02:22:07;2.53;;;0.63;;
38089;SDS011;23904;52.322;10.232;2023-04-01T02:24:36;4.85;;;1.13;;
38089;SDS011;23904;52.322;10.232;2023-04-01T02:27:04;2.60;;;1.05;;
38089;SDS011;23904;52.322;10.232;2023-04-01T02:29:30;3.20;;;1.05;;
38089;SDS011;23904;52.322;10.232;2023-04-01T02:31:56;2.67;;;0.80;;
38089;SDS011;23904;52.322;10.232;2023-04-01T02:34:23;9.25;;;1.60;;
38089;SDS011;23904;52.322;10.232;2023-04-01T02:36:50;5.95;;;1.40;;
38089;SDS011;23904;52.322;10.232;2023-04-01T02:39:16;4.85;;;2.03;;
38089;SDS011;23904;52.322;10.232;2023-04-01T02:41:43;4.53;;;1.23;;
38089;SDS011;23904;52.322;10.232;2023-04-01T02:44:11;7.53;;;1.30;;
38089;SDS011;23904;52.322;10.232;2023-04-01T02:46:39;11.25;;;2.08;;
38089;SDS011;23904;52.322;10.232;2023-04-01T02:49:05;8.63;;;2.67;;
38089;SDS011;23904;52.322;10.232;2023-04-01T02:51:31;6.43;;;1.17;;
38089;SDS011;23904;52.322;10.232;2023-04-01T02:53:57;5.50;;;1.20;;
38089;SDS011;23904;52.322;10.232;2023-04-01T02:56:23;5.53;;;1.70;;
38089;SDS011;23904;52.322;10.232;2023-04-01T02:58:48;3.92;;;1.27;;
38089;SDS011;23904;52.322;10.232;2023-04-01T03:01:14;7.93;;;1.70;;
38089;SDS011;23904;52.322;10.232;2023-04-01T03:03:40;5.53;;;1.40;;
38089;SDS011;23904;52.322;10.232;2023-04-01T03:06:09;5.95;;;1.58;;
38089;SDS011;23904;52.322;10.232;2023-04-01T03:08:38;5.57;;;1.43;;
38089;SDS011;23904;52.322;10.232;2023-04-01T03:11:04;4.72;;;1.60;;
38089;SDS011;23904;52.322;10.232;2023-04-01T03:13:30;7.75;;;1.67;;
38089;SDS011;23904;52.322;10.232;2023-04-01T03:15:56;9.93;;;1.63;;
38089;SDS011;23904;52.322;10.232;2023-04-01T03:18:22;10.65;;;3.03;;
38089;SDS011;23904;52.322;10.232;2023-04-01T03:20:48;8.50;;;1.63;;
38089;SDS011;23904;52.322;10.232;2023-04-01T03:23:13;6.70;;;1.60;;
38089;SDS011;23904;52.322;10.232;2023-04-01T03:25:39;8.90;;;1.75;;
38089;SDS011;23904;52.322;10.232;2023-04-01T03:28:05;3.53;;;1.35;;
38089;SDS011;23904;52.322;10.232;2023-04-01T03:30:30;5.95;;;1.58;;
38089;SDS011;23904;52.322;10.232;2023-04-01T03:32:56;4.93;;;1.50;;
38089;SDS011;23904;52.322;10.232;2023-04-01T03:35:24;5.47;;;1.48;;
38089;SDS011;23904;52.322;10.232;2023-04-01T03:37:50;4.90;;;1.40;;
38089;SDS011;23904;52.322;10.232;2023-04-01T03:40:17;8.30;;;2.42;;
38089;SDS011;23904;52.322;10.232;2023-04-01T03:42:42;5.25;;;1.48;;
38089;SDS011;23904;52.322;10.232;2023-04-01T03:45:08;4.13;;;1.60;;
38089;SDS011;23904;52.322;10.232;2023-04-01T03:47:35;7.03;;;1.50;;
38089;SDS011;23904;52.322;10.232;2023-04-01T03:50:00;5.43;;;1.60;;
38089;SDS011;23904;52.322;10.232;2023-04-01T03:52:27;5.97;;;1.60;;
38089;SDS011;23904;52.322;10.232;2023-04-01T03:54:53;3.67;;;1.65;;
38089;SDS011;23904;52.322;10.232;2023-04-01T03:57:18;5.53;;;1.88;;
38089;SDS011;23904;52.322;10.232;2023-04-01T03:59:44;6.05;;;2.47;;
38089;SDS011;23904;52.322;10.232;2023-04-01T04:02:09;8.25;;;1.70;;
38089;SDS011;23904;52.322;10.232;2023-04-01T04:04:35;4.97;;;2.25;;
38089;SDS011;23904;52.322;10.232;2023-04-01T04:07:01;8.85;;;2.50;;
38089;SDS011;23904;52.322;10.232;2023-04-01T04:09:26;11.07;;;2.28;;
38089;SDS011;23904;52.322;10.232;2023-04-01T04:11:52;6.28;;;2.50;;
38089;SDS011;23904;52.322;10.232;2023-04-01T04:14:18;7.13;;;2.03;;
38089;SDS011;23904;52.322;10.232;2023-04-01T04:16:43;7.70;;;1.77;;
38089;SDS011;23904;52.322;10.232;2023-04-01T04:19:09;9.70;;;2.10;;
38089;SDS011;23904;52.322;10.232;2023-04-01T04:21:34;9.98;;;2.17;;
38089;SDS011;23904;52.322;10.232;2023-04-01T04:24:00;6.90;;;1.80;;
38089;SDS011;23904;52.322;10.232;2023-04-01T04:26:28;8.43;;;1.83;;
38089;SDS011;23904;52.322;10.232;2023-04-01T04:28:54;5.97;;;2.08;;
38089;SDS011;23904;52.322;10.232;2023-04-01T04:31:21;10.52;;;1.58;;
38089;SDS011;23904;52.322;10.232;2023-04-01T04:33:48;7.75;;;2.10;;
38089;SDS011;23904;52.322;10.232;2023-04-01T04:36:14;9.80;;;1.95;;
38089;SDS011;23904;52.322;10.232;2023-04-01T04:38:40;7.32;;;1.88;;
38089;SDS011;23904;52.322;10.232;2023-04-01T04:41:09;5.07;;;1.65;;
38089;SDS011;23904;52.322;10.232;2023-04-01T04:43:37;8.30;;;1.20;;
38089;SDS011;23904;52.322;10.232;2023-04-01T04:46:07;4.60;;;1.27;;
38089;SDS011;23904;52.322;10.232;2023-04-01T04:48:34;6.10;;;1.75;;
38089;SDS011;23904;52.322;10.232;2023-04-01T04:51:00;6.28;;;1.70;;
38089;SDS011;23904;52.322;10.232;2023-04-01T04:53:26;5.75;;;1.58;;
38089;SDS011;23904;52.322;10.232;2023-04-01T04:55:52;5.43;;;1.60;;
38089;SDS011;23904;52.322;10.232;2023-04-01T04:58:18;4.85;;;1.60;;
38089;SDS011;23904;52.322;10.232;2023-04-01T05:00:44;8.13;;;1.98;;
38089;SDS011;23904;52.322;10.232;2023-04-01T05:03:10;9.32;;;2.20;;
38089;SDS011;23904;52.322;10.232;2023-04-01T05:05:37;7.22;;;3.33;;
38089;SDS011;23904;52.322;10.232;2023-04-01T05:08:03;12.85;;;6.35;;
38089;SDS011;23904;52.322;10.232;2023-04-01T05:10:29;14.27;;;8.10;;
38089;SDS011;23904;52.322;10.232;2023-04-01T05:12:56;14.88;;;7.50;;
38089;SDS011;23904;52.322;10.232;2023-04-01T05:15:22;11.95;;;5.72;;
38089;SDS011;23904;52.322;10.232;2023-04-01T05:17:48;8.68;;;4.43;;
38089;SDS011;23904;52.322;10.232;2023-04-01T05:20:14;6.97;;;3.03;;
38089;SDS011;23904;52.322;10.232;2023-04-01T05:22:41;6.38;;;2.65;;
38089;SDS011;23904;52.322;10.232;2023-04-01T05:25:07;3.65;;;1.35;;
38089;SDS011;23904;52.322;10.232;2023-04-01T05:27:32;6.75;;;1.50;;
38089;SDS011;23904;52.322;10.232;2023-04-01T05:29:58;5.25;;;1.50;;
38089;SDS011;23904;52.322;10.232;2023-04-01T05:32:24;6.82;;;1.40;;
38089;SDS011;23904;52.322;10.232;2023-04-01T05:34:50;5.60;;;1.60;;
38089;SDS011;23904;52.322;10.232;2023-04-01T05:37:16;5.82;;;1.52;;
38089;SDS011;23904;52.322;10.232;2023-04-01T05:39:42;6.80;;;1.80;;
38089;SDS011;23904;52.322;10.232;2023-04-01T05:42:08;6.25;;;1.48;;
38089;SDS011;23904;52.322;10.232;2023-04-01T05:44:34;4.47;;;1.45;;
38089;SDS011;23904;52.322;10.232;2023-04-01T05:47:01;4.25;;;1.75;;
38089;SDS011;23904;52.322;10.232;2023-04-01T05:49:27;5.45;;;1.40;;
38089;SDS011;23904;52.322;10.232;2023-04-01T05:51:53;5.68;;;1.70;;
38089;SDS011;23904;52.322;10.232;2023-04-01T05:54:19;5.20;;;1.30;;
38089;SDS011;23904;52.322;10.232;2023-04-01T05:56:45;4.85;;;1.40;;
38089;SDS011;23904;52.322;10.232;2023-04-01T05:59:11;4.65;;;1.83;;
38089;SDS011;23904;52.322;10.232;2023-04-01T06:01:37;5.90;;;1.75;;
38089;SDS011;23904;52.322;10.232;2023-04-01T06:04:03;2.88;;;1.33;;
38089;SDS011;23904;52.322;10.232;2023-04-01T06:06:30;4.43;;;1.35;;
38089;SDS011;23904;52.322;10.232;2023-04-01T06:08:57;7.45;;;1.95;;
38089;SDS011;23904;52.322;10.232;2023-04-01T06:11:51;3.63;;;1.60;;
38089;SDS011;23904;52.322;10.232;2023-04-01T06:14:44;6.90;;;1.55;;
38089;SDS011;23904;52.322;10.232;2023-04-01T06:20:47;6.63;;;1.52;;
38089;SDS011;23904;52.322;10.232;2023-04-01T06:30:23;3.13;;;1.02;;
38089;SDS011;23904;52.322;10.232;2023-04-01T06:36:00;3.47;;;1.42;;
38089;SDS011;23904;52.322;10.232;2023-04-01T06:38:51;7.82;;;1.48;;
38089;SDS011;23904;52.322;10.232;2023-04-01T06:44:43;5.38;;;2.15;;
38089;SDS011;23904;52.322;10.232;2023-04-01T06:53:06;4.25;;;1.27;;
38089;SDS011;23904;52.322;10.232;2023-04-01T06:55:45;5.15;;;1.80;;
38089;SDS011;23904;52.322;10.232;2023-04-01T07:03:23;2.88;;;1.10;;
38089;SDS011;23904;52.322;10.232;2023-04-01T07:05:58;5.43;;;1.45;;
38089;SDS011;23904;52.322;10.232;2023-04-01T07:08:35;6.38;;;1.13;;
38089;SDS011;23904;52.322;10.232;2023-04-01T07:11:22;3.10;;;1.25;;
38089;SDS011;23904;52.322;10.232;2023-04-01T07:14:39;8.02;;;1.25;;
38089;SDS011;23904;52.322;10.232;2023-04-01T07:19:45;4.15;;;1.52;;
38089;SDS011;23904;52.322;10.232;2023-04-01T07:22:32;6.22;;;1.60;;
38089;SDS011;23904;52.322;10.232;2023-04-01T07:25:30;2.42;;;1.10;;
38089;SDS011;23904;52.322;10.232;2023-04-01T07:28:06;5.45;;;1.02;;
38089;SDS011;23904;52.322;10.232;2023-04-01T07:33:45;7.25;;;1.30;;
38089;SDS011;23904;52.322;10.232;2023-04-01T07:36:38;4.93;;;1.63;;
38089;SDS011;23904;52.322;10.232;2023-04-01T07:50:20;2.90;;;0.80;;
38089;SDS011;23904;52.322;10.232;2023-04-01T07:53:17;3.22;;;1.00;;
38089;SDS011;23904;52.322;10.232;2023-04-01T07:59:21;2.30;;;0.82;;
38089;SDS011;23904;52.322;10.232;2023-04-01T08:02:23;5.15;;;0.93;;
38089;SDS011;23904;52.322;10.232;2023-04-01T08:05:29;3.67;;;1.10;;
38089;SDS011;23904;52.322;10.232;2023-04-01T08:08:19;4.07;;;0.77;;
38089;SDS011;23904;52.322;10.232;2023-04-01T08:10:56;3.45;;;1.05;;
38089;SDS011;23904;52.322;10.232;2023-04-01T08:14:00;2.38;;;0.85;;
38089;SDS011;23904;52.322;10.232;2023-04-01T08:22:30;3.60;;;1.00;;
38089;SDS011;23904;52.322;10.232;2023-04-01T08:25:05;4.93;;;0.90;;
38089;SDS011;23904;52.322;10.232;2023-04-01T08:27:37;4.20;;;0.90;;
38089;SDS011;23904;52.322;10.232;2023-04-01T08:33:29;6.35;;;0.90;;
38089;SDS011;23904;52.322;10.232;2023-04-01T08:36:05;2.85;;;1.00;;
38089;SDS011;23904;52.322;10.232;2023-04-01T08:38:44;1.65;;;0.40;;
38089;SDS011;23904;52.322;10.232;2023-04-01T08:50:49;5.72;;;1.02;;
38089;SDS011;23904;52.322;10.232;2023-04-01T09:02:19;4.28;;;1.25;;
38089;SDS011;23904;52.322;10.232;2023-04-01T09:05:03;3.90;;;0.80;;
38089;SDS011;23904;52.322;10.232;2023-04-01T09:16:44;6.35;;;1.95;;
38089;SDS011;23904;52.322;10.232;2023-04-01T09:19:47;5.40;;;1.48;;
38089;SDS011;23904;52.322;10.232;2023-04-01T09:23:10;2.70;;;1.30;;
38089;SDS011;23904;52.322;10.232;2023-04-01T09:29:02;2.47;;;0.73;;
38089;SDS011;23904;52.322;10.232;2023-04-01T09:43:30;3.95;;;0.85;;
38089;SDS011;23904;52.322;10.232;2023-04-01T09:55:37;4.18;;;1.15;;
38089;SDS011;23904;52.322;10.232;2023-04-01T09:59:21;4.55;;;1.50;;
38089;SDS011;23904;52.322;10.232;2023-04-01T10:05:51;2.92;;;1.25;;
38089;SDS011;23904;52.322;10.232;2023-04-01T10:24:05;1.80;;;0.77;;
38089;SDS011;23904;52.322;10.232;2023-04-01T10:39:34;1.75;;;0.50;;
38089;SDS011;23904;52.322;10.232;2023-04-01T10:45:24;5.15;;;2.25;;
38089;SDS011;23904;52.322;10.232;2023-04-01T10:48:47;8.52;;;4.50;;
38089;SDS011;23904;52.322;10.232;2023-04-01T11:00:58;2.03;;;0.60;;
38089;SDS011;23904;52.322;10.232;2023-04-01T11:22:08;1.70;;;0.50;;
38089;SDS011;23904;52.322;10.232;2023-04-01T11:28:15;3.70;;;0.80;;
38089;SDS011;23904;52.322;10.232;2023-04-01T11:33:47;2.53;;;0.55;;
38089;SDS011;23904;52.322;10.232;2023-04-01T11:42:49;3.25;;;0.47;;
38089;SDS011;23904;52.322;10.232;2023-04-01T11:46:25;1.10;;;0.50;;
38089;SDS011;23904;52.322;10.232;2023-04-01T11:48:46;2.15;;;0.47;;
38089;SDS011;23904;52.322;10.232;2023-04-01T12:00:29;0.85;;;0.30;;
38089;SDS011;23904;52.322;10.232;2023-04-01T12:06:35;2.30;;;0.40;;
38089;SDS011;23904;52.322;10.232;2023-04-01T12:09:34;1.33;;;0.45;;
38089;SDS011;23904;52.322;10.232;2023-04-01T12:15:36;3.78;;;0.93;;
38089;SDS011;23904;52.322;10.232;2023-04-01T12:18:38;2.75;;;1.13;;
38089;SDS011;23904;52.322;10.232;2023-04-01T12:21:17;1.45;;;0.50;;
38089;SDS011;23904;52.322;10.232;2023-04-01T12:36:38;1.90;;;0.70;;
38089;SDS011;23904;52.322;10.232;2023-04-01T12:39:37;3.42;;;1.17;;
38089;SDS011;23904;52.322;10.232;2023-04-01T12:42:45;3.10;;;1.08;;
38089;SDS011;23904;52.322;10.232;2023-04-01T12:51:29;2.33;;;0.60;;
38089;SDS011;23904;52.322;10.232;2023-04-01T13:03:41;1.42;;;0.60;;
38089;SDS011;23904;52.322;10.232;2023-04-01T13:12:57;3.58;;;1.55;;
38089;SDS011;23904;52.322;10.232;2023-04-01T13:16:07;3.92;;;1.75;;
38089;SDS011;23904;52.322;10.232;2023-04-01T13:24:16;7.68;;;3.63;;
38089;SDS011;23904;52.322;10.232;2023-04-01T13:26:57;5.72;;;2.42;;
38089;SDS011;23904;52.322;10.232;2023-04-01T13:33:04;2.90;;;1.30;;
38089;SDS011;23904;52.322;10.232;2023-04-01T13:39:07;2.63;;;1.23;;
38089;SDS011;23904;52.322;10.232;2023-04-01T13:42:14;2.72;;;1.30;;
38089;SDS011;23904;52.322;10.232;2023-04-01T13:45:21;3.40;;;1.67;;
38089;SDS011;23904;52.322;10.232;2023-04-01T13:48:21;2.95;;;1.70;;
38089;SDS011;23904;52.322;10.232;2023-04-01T13:51:48;3.60;;;1.52;;
38089;SDS011;23904;52.322;10.232;2023-04-01T14:00:23;5.30;;;1.80;;
38089;SDS011;23904;52.322;10.232;2023-04-01T14:03:07;3.13;;;1.67;;
38089;SDS011;23904;52.322;10.232;2023-04-01T14:12:04;3.35;;;1.65;;
38089;SDS011;23904;52.322;10.232;2023-04-01T14:17:38;1.88;;;1.20;;
38089;SDS011;23904;52.322;10.232;2023-04-01T14:23:13;5.45;;;2.75;;
38089;SDS011;23904;52.322;10.232;2023-04-01T14:32:46;2.80;;;1.45;;
38089;SDS011;23904;52.322;10.232;2023-04-01T14:35:38;2.28;;;1.27;;
38089;SDS011;23904;52.322;10.232;2023-04-01T14:40:56;1.35;;;0.90;;
38089;SDS011;23904;52.322;10.232;2023-04-01T14:44:05;1.83;;;1.00;;
38089;SDS011;23904;52.322;10.232;2023-04-01T14:50:17;2.70;;;1.30;;
38089;SDS011;23904;52.322;10.232;2023-04-01T14:53:11;1.90;;;1.20;;
38089;SDS011;23904;52.322;10.232;2023-04-01T14:55:49;2.33;;;1.23;;
38089;SDS011;23904;52.322;10.232;2023-04-01T14:58:18;5.32;;;1.70;;
38089;SDS011;23904;52.322;10.232;2023-04-01T15:06:50;3.25;;;1.75;;
38089;SDS011;23904;52.322;10.232;2023-04-01T15:12:59;3.67;;;1.58;;
38089;SDS011;23904;52.322;10.232;2023-04-01T15:21:55;2.38;;;1.48;;
38089;SDS011;23904;52.322;10.232;2023-04-01T15:24:44;2.88;;;1.80;;
38089;SDS011;23904;52.322;10.232;2023-04-01T15:35:38;3.55;;;1.38;;
38089;SDS011;23904;52.322;10.232;2023-04-01T15:38:34;2.70;;;1.58;;
38089;SDS011;23904;52.322;10.232;2023-04-01T15:43:45;3.67;;;1.60;;
38089;SDS011;23904;52.322;10.232;2023-04-01T15:49:11;3.08;;;1.30;;
38089;SDS011;23904;52.322;10.232;2023-04-01T16:01:09;2.30;;;1.00;;
38089;SDS011;23904;52.322;10.232;2023-04-01T16:04:13;4.22;;;2.20;;
38089;SDS011;23904;52.322;10.232;2023-04-01T16:06:58;6.75;;;1.70;;
38089;SDS011;23904;52.322;10.232;2023-04-01T16:21:51;3.95;;;1.75;;
38089;SDS011;23904;52.322;10.232;2023-04-01T16:27:11;4.53;;;2.45;;
38089;SDS011;23904;52.322;10.232;2023-04-01T16:36:09;4.30;;;2.45;;
38089;SDS011;23904;52.322;10.232;2023-04-01T16:38:51;3.25;;;1.75;;
38089;SDS011;23904;52.322;10.232;2023-04-01T16:42:07;2.72;;;1.45;;
38089;SDS011;23904;52.322;10.232;2023-04-01T16:44:49;4.15;;;1.52;;
38089;SDS011;23904;52.322;10.232;2023-04-01T16:47:30;3.70;;;1.80;;
38089;SDS011;23904;52.322;10.232;2023-04-01T16:50:13;3.05;;;1.63;;
38089;SDS011;23904;52.322;10.232;2023-04-01T16:53:00;10.85;;;1.67;;
38089;SDS011;23904;52.322;10.232;2023-04-01T16:58:36;3.03;;;1.40;;
38089;SDS011;23904;52.322;10.232;2023-04-01T17:01:20;3.13;;;1.48;;
38089;SDS011;23904;52.322;10.232;2023-04-01T17:03:53;2.78;;;1.80;;
38089;SDS011;23904;52.322;10.232;2023-04-01T17:09:41;4.82;;;2.03;;
38089;SDS011;23904;52.322;10.232;2023-04-01T17:12:28;3.17;;;1.58;;
38089;SDS011;23904;52.322;10.232;2023-04-01T17:15:10;3.33;;;1.50;;
38089;SDS011;23904;52.322;10.232;2023-04-01T17:18:11;5.07;;;1.63;;
38089;SDS011;23904;52.322;10.232;2023-04-01T17:20:58;2.33;;;1.13;;
38089;SDS011;23904;52.322;10.232;2023-04-01T17:23:44;5.75;;;2.33;;
38089;SDS011;23904;52.322;10.232;2023-04-01T17:26:37;3.42;;;1.33;;
38089;SDS011;23904;52.322;10.232;2023-04-01T17:29:22;1.88;;;1.20;;
38089;SDS011;23904;52.322;10.232;2023-04-01T17:32:20;3.30;;;1.63;;
38089;SDS011;23904;52.322;10.232;2023-04-01T17:35:52;2.15;;;1.08;;
38089;SDS011;23904;52.322;10.232;2023-04-01T17:44:57;2.65;;;1.23;;
38089;SDS011;23904;52.322;10.232;2023-04-01T17:47:45;2.95;;;1.35;;
38089;SDS011;23904;52.322;10.232;2023-04-01T17:50:52;2.47;;;1.45;;
38089;SDS011;23904;52.322;10.232;2023-04-01T17:53:29;3.30;;;1.27;;
38089;SDS011;23904;52.322;10.232;2023-04-01T17:59:45;4.05;;;1.58;;
38089;SDS011;23904;52.322;10.232;2023-04-01T18:05:36;4.60;;;1.48;;
38089;SDS011;23904;52.322;10.232;2023-04-01T18:11:31;4.32;;;2.20;;
38089;SDS011;23904;52.322;10.232;2023-04-01T18:22:41;2.88;;;1.52;;
38089;SDS011;23904;52.322;10.232;2023-04-01T18:25:15;3.38;;;1.80;;
38089;SDS011;23904;52.322;10.232;2023-04-01T18:28:12;3.38;;;1.73;;
38089;SDS011;23904;52.322;10.232;2023-04-01T18:36:39;2.30;;;1.33;;
38089;SDS011;23904;52.322;10.232;2023-04-01T18:39:32;3.55;;;1.50;;
38089;SDS011;23904;52.322;10.232;2023-04-01T18:42:06;2.83;;;1.40;;
38089;SDS011;23904;52.322;10.232;2023-04-01T18:47:43;2.78;;;1.48;;
38089;SDS011;23904;52.322;10.232;2023-04-01T18:53:15;3.13;;;1.35;;
38089;SDS011;23904;52.322;10.232;2023-04-01T18:56:04;2.00;;;1.48;;
38089;SDS011;23904;52.322;10.232;2023-04-01T18:58:34;2.25;;;1.33;;
38089;SDS011;23904;52.322;10.232;2023-04-01T19:01:23;3.63;;;1.48;;
38089;SDS011;23904;52.322;10.232;2023-04-01T19:04:14;2.35;;;1.60;;
38089;SDS011;23904;52.322;10.232;2023-04-01T19:07:26;2.22;;;1.40;;
38089;SDS011;23904;52.322;10.232;2023-04-01T19:10:31;2.45;;;1.70;;
38089;SDS011;23904;52.322;10.232;2023-04-01T19:21:44;4.80;;;2.00;;
38089;SDS011;23904;52.322;10.232;2023-04-01T19:27:20;2.85;;;1.67;;
38089;SDS011;23904;52.322;10.232;2023-04-01T19:36:24;5.15;;;2.55;;
38089;SDS011;23904;52.322;10.232;2023-04-01T19:39:07;4.32;;;3.03;;
38089;SDS011;23904;52.322;10.232;2023-04-01T19:44:51;8.30;;;3.40;;
38089;SDS011;23904;52.322;10.232;2023-04-01T19:50:36;9.23;;;3.60;;
38089;SDS011;23904;52.322;10.232;2023-04-01T19:54:01;8.02;;;3.50;;
38089;SDS011;23904;52.322;10.232;2023-04-01T19:56:56;5.95;;;3.05;;
38089;SDS011;23904;52.322;10.232;2023-04-01T19:59:34;5.97;;;3.10;;
38089;SDS011;23904;52.322;10.232;2023-04-01T20:04:55;6.03;;;2.95;;
38089;SDS011;23904;52.322;10.232;2023-04-01T20:07:30;3.97;;;3.13;;
38089;SDS011;23904;52.322;10.232;2023-04-01T20:15:20;5.85;;;2.90;;
38089;SDS011;23904;52.322;10.232;2023-04-01T20:18:02;3.58;;;2.08;;
38089;SDS011;23904;52.322;10.232;2023-04-01T20:20:40;4.38;;;2.88;;
38089;SDS011;23904;52.322;10.232;2023-04-01T20:23:30;4.47;;;2.70;;
38089;SDS011;23904;52.322;10.232;2023-04-01T20:26:08;8.02;;;3.92;;
38089;SDS011;23904;52.322;10.232;2023-04-01T20:33:47;5.88;;;2.92;;
38089;SDS011;23904;52.322;10.232;2023-04-01T20:36:51;4.43;;;2.58;;
38089;SDS011;23904;52.322;10.232;2023-04-01T20:39:50;4.88;;;2.90;;
38089;SDS011;23904;52.322;10.232;2023-04-01T20:43:03;7.22;;;3.42;;
38089;SDS011;23904;52.322;10.232;2023-04-01T20:51:39;5.03;;;2.90;;
38089;SDS011;23904;52.322;10.232;2023-04-01T20:57:31;7.93;;;3.50;;
38089;SDS011;23904;52.322;10.232;2023-04-01T21:09:05;5.20;;;3.60;;
38089;SDS011;23904;52.322;10.232;2023-04-01T21:12:14;7.32;;;3.83;;
38089;SDS011;23904;52.322;10.232;2023-04-01T21:18:10;7.35;;;4.30;;
38089;SDS011;23904;52.322;10.232;2023-04-01T21:20:57;9.05;;;4.90;;
38089;SDS011;23904;52.322;10.232;2023-04-01T21:26:33;7.90;;;4.90;;
38089;SDS011;23904;52.322;10.232;2023-04-01T21:29:30;7.47;;;4.93;;
38089;SDS011;23904;52.322;10.232;2023-04-01T21:32:27;8.18;;;4.88;;
38089;SDS011;23904;52.322;10.232;2023-04-01T21:35:03;8.55;;;4.13;;
38089;SDS011;23904;52.322;10.232;2023-04-01T21:37:49;11.13;;;4.18;;
38089;SDS011;23904;52.322;10.232;2023-04-01T21:47:14;9.00;;;4.70;;
38089;SDS011;23904;52.322;10.232;2023-04-01T21:50:32;6.38;;;4.30;;
38089;SDS011;23904;52.322;10.232;2023-04-01T22:02:46;10.50;;;5.05;;
38089;SDS011;23904;52.322;10.232;2023-04-01T22:08:52;6.80;;;4.75;;
38089;SDS011;23904;52.322;10.232;2023-04-01T22:11:34;10.23;;;5.47;;
38089;SDS011;23904;52.322;10.232;2023-04-01T22:25:38;10.52;;;5.85;;
38089;SDS011;23904;52.322;10.232;2023-04-01T22:28:27;10.30;;;4.78;;
38089;SDS011;23904;52.322;10.232;2023-04-01T22:31:03;9.32;;;4.30;;
38089;SDS011;23904;52.322;10.232;2023-04-01T22:47:57;10.73;;;4.63;;
38089;SDS011;23904;52.322;10.232;2023-04-01T22:50:36;9.65;;;4.63;;
38089;SDS011;23904;52.322;10.232;2023-04-01T22:53:25;11.48;;;5.78;;
38089;SDS011;23904;52.322;10.232;2023-04-01T22:56:15;11.73;;;5.45;;
38089;SDS011;23904;52.322;10.232;2023-04-01T22:58:57;9.75;;;5.60;;
38089;SDS011;23904;52.322;10.232;2023-04-01T23:01:33;11.57;;;6.15;;
38089;SDS011;23904;52.322;10.232;2023-04-01T23:04:05;15.02;;;6.20;;
38089;SDS011;23904;52.322;10.232;2023-04-01T23:06:35;16.05;;;6.40;;
38089;SDS011;23904;52.322;10.232;2023-04-01T23:09:17;13.23;;;6.38;;
38089;SDS011;23904;52.322;10.232;2023-04-01T23:12:13;14.82;;;6.72;;
38089;SDS011;23904;52.322;10.232;2023-04-01T23:14:44;17.20;;;6.50;;
38089;SDS011;23904;52.322;10.232;2023-04-01T23:20:00;12.80;;;5.55;;
38089;SDS011;23904;52.322;10.232;2023-04-01T23:22:59;13.55;;;5.72;;
38089;SDS011;23904;52.322;10.232;2023-04-01T23:28:56;12.70;;;6.47;;
38089;SDS011;23904;52.322;10.232;2023-04-01T23:34:32;12.10;;;5.45;;
38089;SDS011;23904;52.322;10.232;2023-04-01T23:37:04;17.95;;;5.72;;
38089;SDS011;23904;52.322;10.232;2023-04-01T23:39:47;14.63;;;6.20;;
38089;SDS011;23904;52.322;10.232;2023-04-01T23:42:24;13.32;;;5.15;;
38089;SDS011;23904;52.322;10.232;2023-04-01T23:45:00;16.08;;;5.22;;
38089;SDS011;23904;52.322;10.232;2023-04-01T23:47:42;13.30;;;5.00;;
38089;SDS011;23904;52.322;10.232;2023-04-01T23:50:14;15.55;;;4.50;;
38089;SDS011;23904;52.322;10.232;2023-04-01T23:52:46;10.15;;;4.57;;
38089;SDS011;23904;52.322;10.232;2023-04-01T23:55:43;14.48;;;4.75;;
